createdAt,value
2019-05-18T00:01:24.969Z,53.10
2019-05-18T00:03:53.720Z,43.78
2019-05-18T00:06:22.542Z,46.37
2019-05-18T00:08:51.304Z,46.95
2019-05-18T00:11:20.081Z,47.17
2019-05-18T00:13:48.879Z,56.68
2019-05-18T00:16:17.639Z,55.38
2019-05-18T00:18:46.519Z,59.20
2019-05-18T00:21:15.260Z,64.80
2019-05-18T00:23:44.039Z,57.45
2019-05-18T00:26:12.859Z,47.67
2019-05-18T00:28:41.622Z,45.67
2019-05-18T00:31:10.380Z,49.55
2019-05-18T00:33:39.167Z,41.98
2019-05-18T00:36:08.021Z,351.23
2019-05-18T00:38:36.847Z,48.87
2019-05-18T00:41:05.599Z,42.33
2019-05-18T00:43:34.339Z,55.88
2019-05-18T00:46:03.320Z,58.63
2019-05-18T00:48:32.120Z,62.90
2019-05-18T00:51:01.075Z,50.08
2019-05-18T00:53:29.839Z,74.58
2019-05-18T00:55:58.599Z,38.53
2019-05-18T00:58:27.341Z,43.52
2019-05-18T01:00:56.119Z,49.40
2019-05-18T01:03:24.880Z,73.47
2019-05-18T01:05:53.619Z,68.80
2019-05-18T01:08:22.461Z,59.73
2019-05-18T01:10:51.219Z,55.55
2019-05-18T01:13:19.966Z,46.58
2019-05-18T01:15:48.740Z,86.15
2019-05-18T01:18:17.519Z,171.60
2019-05-18T01:20:47.059Z,67.97
2019-05-18T01:23:15.839Z,104.60
2019-05-18T01:25:44.581Z,75.87
2019-05-18T01:28:13.320Z,55.08
2019-05-18T01:30:42.082Z,72.37
2019-05-18T01:33:10.880Z,50.70
2019-05-18T01:35:39.599Z,55.00
2019-05-18T01:38:08.373Z,71.67
2019-05-18T01:40:37.139Z,69.10
2019-05-18T01:43:05.901Z,57.27
2019-05-18T01:45:35.444Z,53.73
2019-05-18T01:48:13.436Z,51.15
2019-05-18T01:50:34.679Z,63.63
2019-05-18T01:53:03.501Z,58.70
2019-05-18T01:55:32.240Z,58.85
2019-05-18T01:58:01.047Z,55.67
2019-05-18T02:00:29.800Z,58.42
2019-05-18T02:02:58.573Z,59.63
2019-05-18T02:05:27.361Z,59.65
2019-05-18T02:07:56.161Z,65.22
2019-05-18T02:10:24.899Z,65.62
2019-05-18T02:12:53.759Z,66.30
2019-05-18T02:15:22.539Z,62.50
2019-05-18T02:17:51.281Z,54.20
2019-05-18T02:20:20.140Z,51.98
2019-05-18T02:22:48.882Z,47.88
2019-05-18T02:25:18.079Z,49.18
2019-05-18T02:27:46.842Z,45.33
2019-05-18T02:30:17.483Z,44.85
2019-05-18T02:32:46.521Z,42.80
2019-05-18T02:35:15.266Z,46.20
2019-05-18T02:37:44.060Z,40.78
2019-05-18T02:40:12.799Z,41.88
2019-05-18T02:42:41.549Z,40.60
2019-05-18T02:45:11.474Z,43.40
2019-05-18T02:47:40.258Z,42.38
2019-05-18T02:50:10.126Z,41.63
2019-05-18T02:52:38.885Z,41.42
2019-05-18T02:55:08.223Z,44.58
2019-05-18T02:57:36.982Z,40.10
2019-05-18T03:00:10.429Z,39.98
2019-05-18T03:02:39.333Z,44.27
2019-05-18T03:05:09.068Z,44.00
2019-05-18T03:07:37.836Z,50.05
2019-05-18T03:10:08.560Z,34.40
2019-05-18T03:12:37.350Z,37.05
2019-05-18T03:15:07.739Z,34.23
2019-05-18T03:17:36.642Z,33.85
2019-05-18T03:20:09.472Z,37.25
2019-05-18T03:22:38.259Z,33.83
2019-05-18T03:25:10.720Z,36.93
2019-05-18T03:27:39.498Z,35.13
2019-05-18T03:30:09.468Z,32.03
2019-05-18T03:32:38.289Z,34.63
2019-05-18T03:35:07.367Z,34.55
2019-05-18T03:37:36.201Z,34.45
2019-05-18T03:40:06.479Z,34.85
2019-05-18T03:42:35.325Z,33.33
2019-05-18T03:45:04.249Z,34.23
2019-05-18T03:47:32.985Z,31.82
2019-05-18T03:50:01.742Z,32.70
2019-05-18T03:52:30.500Z,30.48
2019-05-18T03:54:59.743Z,31.10
2019-05-18T03:57:28.548Z,39.08
2019-05-18T03:59:57.301Z,39.50
2019-05-18T04:02:26.063Z,35.63
2019-05-18T04:04:54.821Z,40.10
2019-05-18T04:07:23.582Z,42.43
2019-05-18T04:09:52.396Z,49.08
2019-05-18T04:12:21.160Z,46.45
2019-05-18T04:14:49.933Z,43.25
2019-05-18T04:17:18.699Z,41.23
2019-05-18T04:19:47.721Z,39.00
2019-05-18T04:22:16.722Z,41.60
2019-05-18T04:24:45.488Z,45.98
2019-05-18T04:27:14.227Z,49.48
2019-05-18T04:29:43.001Z,62.93
2019-05-18T04:32:11.741Z,60.88
2019-05-18T04:34:40.549Z,85.35
2019-05-18T04:37:09.279Z,62.30
2019-05-18T04:39:38.107Z,52.55
2019-05-18T04:42:06.864Z,54.08
2019-05-18T04:44:35.624Z,52.33
2019-05-18T04:47:04.641Z,55.92
2019-05-18T04:49:33.440Z,57.73
2019-05-18T04:52:02.222Z,53.78
2019-05-18T04:54:31.001Z,48.58
2019-05-18T04:56:59.780Z,45.43
2019-05-18T04:59:28.609Z,44.98
2019-05-18T05:01:57.411Z,40.35
2019-05-18T05:04:26.241Z,37.70
2019-05-18T05:06:55.041Z,36.45
2019-05-18T05:09:23.860Z,38.75
2019-05-18T05:11:52.619Z,35.48
2019-05-18T05:14:21.381Z,39.30
2019-05-18T05:16:50.201Z,35.08
2019-05-18T05:19:18.962Z,34.27
2019-05-18T05:21:47.748Z,34.40
2019-05-18T05:24:16.502Z,36.58
2019-05-18T05:26:45.340Z,28.47
2019-05-18T05:29:14.101Z,26.80
2019-05-18T05:31:42.839Z,29.50
2019-05-18T05:34:11.630Z,25.92
2019-05-18T05:36:40.360Z,23.90
2019-05-18T05:39:09.180Z,25.48
2019-05-18T05:41:37.966Z,23.55
2019-05-18T05:44:06.719Z,23.22
2019-05-18T05:46:37.331Z,22.02
2019-05-18T05:49:06.020Z,22.90
2019-05-18T05:51:34.840Z,23.92
2019-05-18T05:54:03.600Z,24.12
2019-05-18T05:56:32.379Z,24.10
2019-05-18T05:59:01.168Z,27.73
2019-05-18T06:01:29.905Z,23.87
2019-05-18T06:03:58.719Z,23.22
2019-05-18T06:06:34.768Z,29.32
2019-05-18T06:09:07.001Z,27.75
2019-05-18T06:11:35.760Z,26.95
2019-05-18T06:14:04.599Z,26.02
2019-05-18T06:16:33.399Z,29.50
2019-05-18T06:19:02.160Z,28.67
2019-05-18T06:21:30.999Z,27.77
2019-05-18T06:23:59.720Z,29.15
2019-05-18T06:26:28.459Z,29.20
2019-05-18T06:28:57.283Z,26.17
2019-05-18T06:31:26.019Z,28.15
2019-05-18T06:33:54.838Z,27.77
2019-05-18T06:36:23.600Z,27.55
2019-05-18T06:38:52.349Z,23.50
2019-05-18T06:41:21.139Z,25.82
2019-05-18T06:43:49.904Z,27.42
2019-05-18T06:46:18.719Z,24.92
2019-05-18T06:48:47.479Z,23.67
2019-05-18T06:51:16.218Z,23.98
2019-05-18T06:53:45.039Z,25.23
2019-05-18T06:56:14.899Z,23.35
2019-05-18T06:58:44.242Z,24.30
2019-05-18T07:01:13.039Z,24.87
2019-05-18T07:03:44.961Z,20.82
2019-05-18T07:06:12.319Z,21.73
2019-05-18T07:08:41.580Z,19.12
2019-05-18T07:11:10.442Z,22.58
2019-05-18T07:13:39.199Z,19.40
2019-05-18T07:16:07.941Z,23.75
2019-05-18T07:18:36.720Z,19.42
2019-05-18T07:21:05.482Z,17.75
2019-05-18T07:23:34.327Z,19.67
2019-05-18T07:26:03.221Z,18.57
2019-05-18T07:28:31.978Z,21.25
2019-05-18T07:31:00.741Z,20.00
2019-05-18T07:33:29.519Z,21.23
2019-05-18T07:35:58.319Z,18.10
2019-05-18T07:38:27.058Z,19.65
2019-05-18T07:40:55.858Z,20.95
2019-05-18T07:43:24.671Z,18.73
2019-05-18T07:45:53.503Z,17.85
2019-05-18T07:48:22.319Z,15.15
2019-05-18T07:50:51.118Z,15.32
2019-05-18T07:53:19.879Z,15.48
2019-05-18T07:55:48.660Z,15.40
2019-05-18T07:58:17.419Z,16.55
2019-05-18T08:00:46.243Z,14.83
2019-05-18T08:03:14.999Z,14.87
2019-05-18T08:05:43.763Z,13.05
2019-05-18T08:08:12.540Z,13.00
2019-05-18T08:10:43.565Z,14.85
2019-05-18T08:13:11.881Z,12.85
2019-05-18T08:15:40.818Z,13.70
2019-05-18T08:18:09.645Z,13.55
2019-05-18T08:20:38.359Z,13.72
2019-05-18T08:23:07.159Z,13.00
2019-05-18T08:25:35.964Z,12.93
2019-05-18T08:28:04.699Z,13.05
2019-05-18T08:30:33.619Z,17.10
2019-05-18T08:33:02.402Z,14.20
2019-05-18T08:35:31.160Z,15.00
2019-05-18T08:37:59.980Z,15.30
2019-05-18T08:40:28.719Z,13.00
2019-05-18T08:42:57.561Z,12.88
2019-05-18T08:45:26.317Z,15.70
2019-05-18T08:47:55.084Z,15.30
2019-05-18T08:50:23.841Z,12.58
2019-05-18T08:52:52.580Z,10.93
2019-05-18T08:55:21.404Z,12.68
2019-05-18T08:57:50.159Z,11.57
2019-05-18T09:00:19.101Z,12.20
2019-05-18T09:02:47.919Z,12.88
2019-05-18T09:05:16.902Z,12.63
2019-05-18T09:07:45.703Z,13.20
2019-05-18T09:10:14.855Z,12.55
2019-05-18T09:12:43.718Z,13.30
2019-05-18T09:15:12.904Z,12.55
2019-05-18T09:17:41.638Z,13.60
2019-05-18T09:20:11.159Z,10.10
2019-05-18T09:22:39.889Z,10.50
2019-05-18T09:25:09.366Z,13.68
2019-05-18T09:27:38.159Z,9.60
2019-05-18T09:30:10.448Z,14.53
2019-05-18T09:32:39.321Z,11.33
2019-05-18T09:35:09.499Z,10.35
2019-05-18T09:37:38.280Z,11.68
2019-05-18T09:40:10.607Z,12.88
2019-05-18T09:42:39.454Z,13.65
2019-05-18T09:45:09.663Z,12.43
2019-05-18T09:47:38.421Z,10.18
2019-05-18T09:50:07.719Z,9.98
2019-05-18T09:52:44.909Z,14.93
2019-05-18T09:55:10.380Z,13.28
2019-05-18T09:57:39.160Z,10.90
2019-05-18T10:00:10.399Z,10.65
2019-05-18T10:02:39.201Z,11.80
2019-05-18T10:05:08.339Z,10.68
2019-05-18T10:07:37.080Z,10.93
2019-05-18T10:10:09.537Z,10.20
2019-05-18T10:12:38.480Z,11.15
2019-05-18T10:15:08.555Z,10.90
2019-05-18T10:17:37.339Z,10.68
2019-05-18T10:20:08.140Z,12.82
2019-05-18T10:22:36.941Z,12.00
2019-05-18T10:25:06.668Z,10.63
2019-05-18T10:27:35.499Z,10.28
2019-05-18T10:30:06.601Z,10.60
2019-05-18T10:32:35.340Z,11.35
2019-05-18T10:35:05.360Z,9.63
2019-05-18T10:37:34.091Z,11.05
2019-05-18T10:40:02.930Z,12.65
2019-05-18T10:42:31.679Z,12.53
2019-05-18T10:45:00.460Z,11.08
2019-05-18T10:47:29.261Z,10.20
2019-05-18T10:49:58.043Z,9.88
2019-05-18T10:52:26.840Z,11.05
2019-05-18T10:54:55.610Z,9.00
2019-05-18T10:57:24.440Z,9.18
2019-05-18T10:59:53.244Z,10.45
2019-05-18T11:02:22.174Z,9.48
2019-05-18T11:04:51.001Z,11.53
2019-05-18T11:07:19.763Z,8.95
2019-05-18T11:09:48.564Z,8.90
2019-05-18T11:12:17.343Z,8.63
2019-05-18T11:14:46.080Z,8.68
2019-05-18T11:17:14.844Z,8.33
2019-05-18T11:19:43.620Z,9.53
2019-05-18T11:22:12.421Z,8.90
2019-05-18T11:24:41.201Z,8.93
2019-05-18T11:27:09.920Z,8.85
2019-05-18T11:29:38.699Z,8.50
2019-05-18T11:32:07.536Z,7.95
2019-05-18T11:34:36.365Z,10.82
2019-05-18T11:37:05.103Z,10.40
2019-05-18T11:39:33.863Z,8.05
2019-05-18T11:42:02.654Z,9.00
2019-05-18T11:44:31.401Z,8.53
2019-05-18T11:47:00.207Z,8.60
2019-05-18T11:49:29.282Z,7.80
2019-05-18T11:51:58.139Z,7.78
2019-05-18T11:54:26.939Z,7.53
2019-05-18T11:56:55.702Z,8.18
2019-05-18T11:59:24.523Z,7.60
2019-05-18T12:01:53.320Z,8.00
2019-05-18T12:04:22.119Z,7.53
2019-05-18T12:06:50.922Z,7.60
2019-05-18T12:09:19.703Z,7.17
2019-05-18T12:11:48.559Z,7.12
2019-05-18T12:14:17.349Z,6.53
2019-05-18T12:16:46.141Z,6.97
2019-05-18T12:19:15.121Z,7.62
2019-05-18T12:21:43.914Z,6.75
2019-05-18T12:24:15.820Z,6.30
2019-05-18T12:26:43.154Z,6.17
2019-05-18T12:29:11.999Z,7.28
2019-05-18T12:31:40.739Z,6.50
2019-05-18T12:34:09.500Z,6.30
2019-05-18T12:36:38.281Z,6.20
2019-05-18T12:39:07.401Z,5.80
2019-05-18T12:41:36.159Z,6.05
2019-05-18T12:44:04.919Z,5.95
2019-05-18T12:46:33.817Z,5.58
2019-05-18T12:49:02.624Z,5.90
2019-05-18T12:51:31.399Z,6.05
2019-05-18T12:54:00.127Z,5.97
2019-05-18T12:56:28.938Z,6.67
2019-05-18T12:58:57.660Z,5.90
2019-05-18T13:01:26.479Z,5.40
2019-05-18T13:03:55.220Z,6.15
2019-05-18T13:06:24.780Z,6.35
2019-05-18T13:08:53.641Z,5.53
2019-05-18T13:11:22.380Z,6.47
2019-05-18T13:13:51.720Z,5.53
2019-05-18T13:16:20.481Z,5.60
2019-05-18T13:18:49.275Z,7.78
2019-05-18T13:21:21.299Z,6.08
2019-05-18T13:23:50.040Z,5.28
2019-05-18T13:26:18.803Z,5.67
2019-05-18T13:28:47.490Z,5.40
2019-05-18T13:31:16.265Z,7.37
2019-05-18T13:33:44.998Z,5.53
2019-05-18T13:36:13.711Z,6.35
2019-05-18T13:38:42.500Z,5.78
2019-05-18T13:41:11.222Z,6.78
2019-05-18T13:43:40.021Z,6.28
2019-05-18T13:46:08.721Z,4.50
2019-05-18T13:48:37.478Z,5.83
2019-05-18T13:51:06.259Z,7.00
2019-05-18T13:53:35.000Z,5.15
2019-05-18T13:56:03.859Z,5.60
2019-05-18T13:58:32.600Z,5.17
2019-05-18T14:01:01.379Z,5.55
2019-05-18T14:03:30.128Z,5.37
2019-05-18T14:05:58.899Z,5.53
2019-05-18T14:08:27.678Z,6.03
2019-05-18T14:10:56.449Z,6.67
2019-05-18T14:13:25.161Z,4.42
2019-05-18T14:15:53.938Z,5.60
2019-05-18T14:18:22.659Z,5.53
2019-05-18T14:20:51.524Z,5.67
2019-05-18T14:23:20.258Z,5.97
2019-05-18T14:25:49.019Z,5.50
2019-05-18T14:28:17.800Z,5.62
2019-05-18T14:30:46.582Z,5.72
2019-05-18T14:33:15.398Z,5.75
2019-05-18T14:35:44.159Z,6.70
2019-05-18T14:38:12.907Z,5.12
2019-05-18T14:40:41.679Z,5.78
2019-05-18T14:43:10.404Z,5.12
2019-05-18T14:45:39.189Z,5.37
2019-05-18T14:48:07.921Z,6.33
2019-05-18T14:50:36.719Z,6.20
2019-05-18T14:53:05.521Z,4.87
2019-05-18T14:55:34.280Z,5.42
2019-05-18T14:58:03.122Z,4.78
2019-05-18T15:00:31.921Z,5.30
2019-05-18T15:03:00.681Z,4.70
2019-05-18T15:05:29.479Z,5.03
2019-05-18T15:07:58.220Z,6.97
2019-05-18T15:10:27.003Z,5.28
2019-05-18T15:12:55.759Z,5.12
2019-05-18T15:15:24.661Z,5.03
2019-05-18T15:17:53.441Z,5.03
2019-05-18T15:20:22.208Z,4.40
2019-05-18T15:22:50.967Z,4.92
2019-05-18T15:25:19.722Z,5.00
2019-05-18T15:27:48.540Z,5.28
2019-05-18T15:30:17.719Z,5.30
2019-05-18T15:32:46.465Z,5.05
2019-05-18T15:35:15.741Z,4.62
2019-05-18T15:37:44.483Z,5.12
2019-05-18T15:40:13.820Z,4.78
2019-05-18T15:42:42.601Z,5.35
2019-05-18T15:45:12.399Z,5.55
2019-05-18T15:47:41.199Z,5.20
2019-05-18T15:50:10.983Z,5.47
2019-05-18T15:52:39.802Z,6.03
2019-05-18T15:55:09.139Z,5.60
2019-05-18T15:57:38.099Z,4.85
2019-05-18T16:00:09.967Z,4.92
2019-05-18T16:02:38.703Z,4.62
2019-05-18T16:05:08.720Z,4.78
2019-05-18T16:07:37.506Z,5.95
2019-05-18T16:10:08.435Z,6.12
2019-05-18T16:12:37.222Z,5.03
2019-05-18T16:15:08.000Z,5.17
2019-05-18T16:17:39.532Z,5.58
2019-05-18T16:20:07.899Z,5.65
2019-05-18T16:22:36.740Z,5.78
2019-05-18T16:25:07.140Z,5.37
2019-05-18T16:27:36.084Z,5.28
2019-05-18T16:30:07.181Z,5.40
2019-05-18T16:32:35.960Z,5.42
2019-05-18T16:35:09.361Z,5.62
2019-05-18T16:37:38.120Z,6.35
2019-05-18T16:40:08.260Z,5.62
2019-05-18T16:42:37.082Z,5.78
2019-05-18T16:45:07.758Z,5.87
2019-05-18T16:47:36.644Z,6.20
2019-05-18T16:50:07.381Z,5.40
2019-05-18T16:52:36.121Z,6.10
2019-05-18T16:55:07.039Z,8.38
2019-05-18T16:57:35.779Z,7.15
2019-05-18T17:00:07.301Z,5.45
2019-05-18T17:02:36.121Z,6.22
2019-05-18T17:05:06.706Z,6.25
2019-05-18T17:07:35.494Z,6.03
2019-05-18T17:10:06.133Z,5.50
2019-05-18T17:12:35.054Z,5.58
2019-05-18T17:15:04.932Z,5.33
2019-05-18T17:17:35.426Z,6.30
2019-05-18T17:20:04.658Z,5.50
2019-05-18T17:22:33.532Z,5.97
2019-05-18T17:25:02.371Z,6.95
2019-05-18T17:27:31.187Z,7.72
2019-05-18T17:29:59.935Z,6.33
2019-05-18T17:32:28.737Z,8.40
2019-05-18T17:34:57.492Z,6.00
2019-05-18T17:37:26.331Z,6.70
2019-05-18T17:39:55.092Z,6.55
2019-05-18T17:42:23.945Z,5.87
2019-05-18T17:44:52.771Z,6.08
2019-05-18T17:47:21.571Z,6.17
2019-05-18T17:49:50.411Z,8.53
2019-05-18T17:52:19.309Z,8.05
2019-05-18T17:54:48.172Z,7.35
2019-05-18T17:57:17.055Z,5.72
2019-05-18T17:59:45.812Z,6.00
2019-05-18T18:02:14.612Z,5.75
2019-05-18T18:04:43.333Z,7.05
2019-05-18T18:07:12.133Z,8.38
2019-05-18T18:09:41.013Z,7.42
2019-05-18T18:12:09.853Z,9.30
2019-05-18T18:14:38.625Z,9.50
2019-05-18T18:17:07.452Z,9.90
2019-05-18T18:19:36.292Z,9.48
2019-05-18T18:22:05.372Z,8.98
2019-05-18T18:24:34.178Z,9.00
2019-05-18T18:27:02.942Z,10.28
2019-05-18T18:29:31.772Z,11.60
2019-05-18T18:32:00.612Z,8.05
2019-05-18T18:34:29.452Z,9.20
2019-05-18T18:36:58.212Z,8.23
2019-05-18T18:39:27.052Z,9.18
2019-05-18T18:41:55.772Z,8.95
2019-05-18T18:44:24.655Z,11.03
2019-05-18T18:46:53.412Z,10.38
2019-05-18T18:49:22.292Z,11.70
2019-05-18T18:51:51.131Z,16.25
2019-05-18T18:54:19.931Z,13.75
2019-05-18T18:56:48.771Z,11.60
2019-05-18T18:59:17.572Z,11.05
2019-05-18T19:01:46.373Z,10.70
2019-05-18T19:04:15.218Z,17.35
2019-05-18T19:06:44.093Z,18.80
2019-05-18T19:09:12.932Z,24.87
2019-05-18T19:11:41.771Z,22.17
2019-05-18T19:14:10.535Z,19.30
2019-05-18T19:16:39.337Z,19.23
2019-05-18T19:19:08.175Z,22.15
2019-05-18T19:21:37.024Z,22.87
2019-05-18T19:24:05.903Z,18.45
2019-05-18T19:26:34.742Z,19.73
2019-05-18T19:29:03.532Z,11.78
2019-05-18T19:31:32.373Z,12.53
2019-05-18T19:34:01.214Z,11.25
2019-05-18T19:36:29.932Z,9.38
2019-05-18T19:38:58.733Z,9.88
2019-05-18T19:41:27.531Z,11.57
2019-05-18T19:43:56.332Z,11.70
2019-05-18T19:46:25.093Z,11.88
2019-05-18T19:48:53.852Z,15.40
2019-05-18T19:51:22.765Z,11.28
2019-05-18T19:53:51.543Z,11.63
2019-05-18T19:56:20.332Z,11.75
2019-05-18T19:58:49.173Z,14.03
2019-05-18T20:01:18.012Z,14.50
2019-05-18T20:03:46.852Z,11.55
2019-05-18T20:06:15.685Z,15.85
2019-05-18T20:08:44.572Z,13.85
2019-05-18T20:11:13.372Z,12.70
2019-05-18T20:13:42.173Z,13.93
2019-05-18T20:16:11.012Z,14.85
2019-05-18T20:18:39.813Z,12.98
2019-05-18T20:21:08.611Z,12.37
2019-05-18T20:23:37.452Z,13.03
2019-05-18T20:26:06.252Z,13.00
2019-05-18T20:28:35.052Z,12.82
2019-05-18T20:31:04.017Z,13.22
2019-05-18T20:33:32.980Z,11.75
2019-05-18T20:36:01.742Z,14.28
2019-05-18T20:38:30.612Z,12.58
2019-05-18T20:40:59.453Z,22.37
2019-05-18T20:43:28.285Z,13.28
2019-05-18T20:45:57.134Z,35.08
2019-05-18T20:48:25.937Z,15.03
2019-05-18T20:50:54.734Z,17.15
2019-05-18T20:53:23.572Z,20.95
2019-05-18T20:55:52.382Z,19.92
2019-05-18T20:58:21.255Z,17.27
2019-05-18T21:00:50.053Z,21.75
2019-05-18T21:03:18.892Z,14.18
2019-05-18T21:05:47.654Z,10.98
2019-05-18T21:08:16.532Z,13.43
2019-05-18T21:10:45.731Z,13.90
2019-05-18T21:13:14.856Z,17.52
2019-05-18T21:15:43.691Z,14.53
2019-05-18T21:18:12.493Z,16.05
2019-05-18T21:20:41.540Z,16.97
2019-05-18T21:23:10.331Z,17.30
2019-05-18T21:25:39.137Z,16.05
2019-05-18T21:28:07.972Z,16.25
2019-05-18T21:30:36.732Z,16.27
2019-05-18T21:33:05.571Z,17.02
2019-05-18T21:35:34.454Z,14.63
2019-05-18T21:38:03.252Z,18.40
2019-05-18T21:40:32.052Z,25.05
2019-05-18T21:43:00.853Z,28.57
2019-05-18T21:45:29.654Z,32.15
2019-05-18T21:47:58.452Z,24.98
2019-05-18T21:50:27.333Z,24.98
2019-05-18T21:52:56.135Z,21.90
2019-05-18T21:55:24.934Z,21.27
2019-05-18T21:57:53.822Z,21.55
2019-05-18T22:00:24.652Z,21.42
2019-05-18T22:02:53.495Z,23.25
2019-05-18T22:05:22.332Z,21.15
2019-05-18T22:07:51.134Z,19.85
2019-05-18T22:10:25.638Z,21.68
2019-05-18T22:12:50.614Z,17.20
2019-05-18T22:15:19.493Z,17.27
2019-05-18T22:18:03.655Z,15.60
2019-05-18T22:20:42.860Z,16.80
2019-05-18T22:23:07.132Z,17.70
2019-05-18T22:25:35.978Z,17.98
2019-05-18T22:28:04.971Z,18.20
2019-05-18T22:30:33.731Z,17.75
2019-05-18T22:33:02.494Z,18.30
2019-05-18T22:35:31.252Z,21.52
2019-05-18T22:38:00.111Z,16.20
2019-05-18T22:40:28.973Z,15.88
2019-05-18T22:42:57.772Z,19.67
2019-05-18T22:45:26.533Z,18.42
2019-05-18T22:47:55.413Z,20.15
2019-05-18T22:50:24.254Z,21.35
2019-05-18T22:52:53.106Z,22.87
2019-05-18T22:55:21.972Z,19.92
2019-05-18T22:57:50.772Z,21.50
2019-05-18T23:00:19.728Z,22.87
2019-05-18T23:02:48.532Z,19.23
2019-05-18T23:05:17.372Z,24.60
2019-05-18T23:07:46.133Z,21.37
2019-05-18T23:10:15.331Z,23.45
2019-05-18T23:12:44.143Z,22.10
2019-05-18T23:15:13.211Z,22.82
2019-05-18T23:17:42.052Z,25.92
2019-05-18T23:20:10.931Z,29.30
2019-05-18T23:22:39.695Z,27.07
2019-05-18T23:25:08.867Z,29.18
2019-05-18T23:27:37.740Z,27.90
2019-05-18T23:30:08.372Z,29.70
2019-05-18T23:32:37.177Z,25.88
2019-05-18T23:35:07.133Z,26.82
2019-05-18T23:37:35.978Z,28.70
2019-05-18T23:40:06.132Z,28.30
2019-05-18T23:42:34.932Z,32.98
2019-05-18T23:45:04.373Z,28.62
2019-05-18T23:47:33.173Z,23.07
2019-05-18T23:50:02.069Z,28.70
2019-05-18T23:52:30.895Z,23.57
2019-05-18T23:54:59.696Z,27.62
2019-05-18T23:57:28.561Z,29.32
2019-05-18T23:59:57.413Z,28.52
